Time;durP1;ratioP1;P1;durP2;ratioP2;P2;SDS_P1;SDS_P2;PMS_P1;PMS_P2;Temp;Humidity;BMP_temperature;BMP_pressure;BME280_temperature;BME280_humidity;BME280_pressure;Samples;Min_cycle;Max_cycle;Signal;HPM_P1;HPM_P2
2021/06/19 00:04:17;;;;;;;15.05;12.93;;;;;;;19.74;84.15;101132.09;10586990;28;20047;-59
2021/06/19 00:09:20;;;;;;;16.98;12.05;;;;;;;19.72;84.29;101139.34;10586428;28;20048;-60
2021/06/19 00:14:22;;;;;;;13.95;12.07;;;;;;;19.77;84.04;101142.44;10586570;27;20066;-59
2021/06/19 00:19:25;;;;;;;13.45;12.02;;;;;;;19.67;84.34;101153.88;10586167;28;20055;-59
2021/06/19 00:24:27;;;;;;;13.25;11.95;;;;;;;19.65;83.62;101150.53;10585875;28;20054;-59
2021/06/19 00:29:31;;;;;;;17.55;12.18;;;;;;;19.61;84.25;101150.94;10585330;28;20040;-59
2021/06/19 00:34:33;;;;;;;13.93;12.27;;;;;;;19.70;82.32;101152.75;10585713;28;20043;-59
2021/06/19 00:39:35;;;;;;;12.80;11.50;;;;;;;19.49;83.46;101144.91;10585994;28;20059;-59
2021/06/19 00:44:38;;;;;;;11.40;10.02;;;;;;;19.36;83.44;101142.50;10585498;28;20491;-59
2021/06/19 00:49:41;;;;;;;10.27;9.25;;;;;;;19.45;83.94;101159.44;10585386;28;20052;-59
2021/06/19 00:54:43;;;;;;;9.48;8.32;;;;;;;19.61;82.39;101157.09;10584881;28;20047;-59
2021/06/19 00:59:46;;;;;;;7.47;6.78;;;;;;;19.20;83.80;101153.66;10585410;27;20138;-59
2021/06/19 01:04:48;;;;;;;9.27;7.55;;;;;;;19.43;83.81;101156.94;10583665;28;20044;-58
2021/06/19 01:09:50;;;;;;;8.93;6.68;;;;;;;19.49;83.11;101150.22;10583233;28;20051;-59
2021/06/19 01:14:56;;;;;;;8.52;5.90;;;;;;;19.20;84.34;101153.66;10583778;28;20043;-58
2021/06/19 01:20:13;;;;;;;6.20;5.43;;;;;;;19.16;83.72;101148.75;10583966;28;20048;-58
2021/06/19 01:25:19;;;;;;;6.38;5.30;;;;;;;19.14;83.91;101158.69;10583522;28;20550;-59
2021/06/19 01:30:27;;;;;;;6.80;5.18;;;;;;;19.05;84.41;101155.84;10583508;28;20052;-59
2021/06/19 01:35:30;;;;;;;7.65;5.25;;;;;;;19.21;82.69;101150.00;10583305;28;20494;-59
2021/06/19 01:40:33;;;;;;;8.55;4.38;;;;;;;18.99;84.18;101156.38;10583723;28;20063;-60
2021/06/19 01:45:35;;;;;;;5.82;5.05;;;;;;;19.09;82.47;101151.13;10583190;28;20040;-60
2021/06/19 01:50:38;;;;;;;4.30;3.90;;;;;;;19.03;84.65;101157.81;10582738;28;20498;-59
2021/06/19 01:55:41;;;;;;;7.10;3.33;;;;;;;19.32;82.27;101151.75;10582741;28;20039;-59
2021/06/19 02:00:43;;;;;;;3.60;3.30;;;;;;;18.85;84.30;101151.44;10583328;28;20047;-60
2021/06/19 02:05:45;;;;;;;6.50;3.58;;;;;;;18.96;83.28;101145.19;10582046;28;20407;-60
2021/06/19 02:10:48;;;;;;;6.18;3.80;;;;;;;19.11;83.73;101155.31;10582887;28;20051;-59
2021/06/19 02:15:51;;;;;;;6.72;4.47;;;;;;;18.90;83.13;101155.38;10582218;28;20073;-59
2021/06/19 02:20:53;;;;;;;5.13;3.53;;;;;;;18.96;83.28;101151.34;10582320;27;20047;-59
2021/06/19 02:25:56;;;;;;;6.03;3.92;;;;;;;18.99;83.58;101160.84;10580952;28;20044;-60
2021/06/19 02:30:58;;;;;;;7.60;3.70;;;;;;;18.88;84.04;101156.50;10581763;28;20501;-59
2021/06/19 02:36:01;;;;;;;5.28;4.15;;;;;;;18.80;83.82;101173.03;10581547;28;20043;-59
2021/06/19 02:41:04;;;;;;;6.00;3.90;;;;;;;19.02;82.29;101165.91;10581085;28;20506;-60
2021/06/19 02:46:06;;;;;;;4.57;3.70;;;;;;;18.94;83.30;101171.88;10581403;28;20043;-59
2021/06/19 02:51:09;;;;;;;6.93;3.85;;;;;;;18.72;83.56;101171.03;10581447;28;20049;-60
2021/06/19 02:56:11;;;;;;;6.40;4.32;;;;;;;18.55;85.04;101177.78;10580907;28;20051;-59
2021/06/19 03:01:13;;;;;;;6.55;4.70;;;;;;;18.62;84.50;101183.41;10582291;28;20052;-61
2021/06/19 03:06:16;;;;;;;7.95;4.20;;;;;;;18.73;84.73;101177.19;10579830;28;20443;-58
2021/06/19 03:11:19;;;;;;;5.15;4.22;;;;;;;18.88;83.91;101185.69;10581315;28;20054;-59
2021/06/19 03:16:21;;;;;;;7.22;4.05;;;;;;;18.74;84.49;101187.69;10580748;28;20054;-58
2021/06/19 03:21:24;;;;;;;4.70;3.85;;;;;;;19.06;82.92;101197.34;10581045;28;20047;-59
2021/06/19 03:26:26;;;;;;;4.20;3.90;;;;;;;19.07;83.93;101199.00;10580524;28;20506;-59
2021/06/19 03:31:31;;;;;;;5.93;3.72;;;;;;;19.12;82.04;101201.28;10580494;28;20407;-59
2021/06/19 03:36:33;;;;;;;5.63;3.83;;;;;;;18.89;83.78;101209.41;10584843;28;20051;-58
2021/06/19 03:41:36;;;;;;;4.07;3.42;;;;;;;19.01;83.18;101214.63;10588119;28;20055;-59
2021/06/19 03:46:39;;;;;;;6.55;4.00;;;;;;;18.92;84.29;101213.59;10588128;28;20047;-59
2021/06/19 03:51:42;;;;;;;6.03;3.55;;;;;;;19.34;80.75;101229.41;10588084;28;20128;-59
2021/06/19 03:56:44;;;;;;;6.75;4.53;;;;;;;19.34;82.26;101221.47;10587780;28;20040;-59
2021/06/19 04:01:46;;;;;;;4.13;3.83;;;;;;;19.51;81.58;101225.28;10587542;28;20483;-59
2021/06/19 04:06:49;;;;;;;3.90;3.70;;;;;;;19.53;81.21;101225.13;10587392;28;20051;-59
2021/06/19 04:11:51;;;;;;;7.22;4.25;;;;;;;19.67;80.58;101227.44;10587249;28;20073;-58
2021/06/19 04:16:53;;;;;;;6.68;4.53;;;;;;;19.65;81.31;101232.88;10586929;28;20047;-59
2021/06/19 04:21:56;;;;;;;3.58;3.28;;;;;;;19.93;78.41;101238.38;10586737;28;20406;-58
2021/06/19 04:26:59;;;;;;;8.57;5.55;;;;;;;19.84;78.80;101244.53;10586383;28;20380;-58
2021/06/19 04:32:02;;;;;;;9.57;5.35;;;;;;;20.08;78.08;101254.75;10568369;28;20491;-58
2021/06/19 04:37:04;;;;;;;6.03;5.35;;;;;;;19.99;77.24;101256.44;10585963;28;20066;-58
2021/06/19 04:42:08;;;;;;;6.78;5.47;;;;;;;20.07;76.20;101262.88;10585974;28;20051;-59
2021/06/19 04:47:11;;;;;;;6.55;4.45;;;;;;;20.10;74.74;101266.09;10584849;28;20039;-58
2021/06/19 04:52:13;;;;;;;5.80;5.10;;;;;;;20.22;76.68;101272.97;10585797;28;20134;-58
2021/06/19 04:57:16;;;;;;;5.45;4.80;;;;;;;20.15;78.32;101273.66;10585361;28;20051;-59
2021/06/19 05:02:18;;;;;;;5.18;4.57;;;;;;;20.26;77.52;101283.31;10585097;28;20044;-59
2021/06/19 05:07:21;;;;;;;4.40;4.00;;;;;;;20.20;78.11;101300.66;10584847;28;20070;-58
2021/06/19 05:12:23;;;;;;;6.07;4.45;;;;;;;20.37;77.49;101294.63;10584866;28;20048;-59
2021/06/19 05:17:28;;;;;;;4.07;3.75;;;;;;;20.59;77.57;101300.66;10584390;28;20495;-58
2021/06/19 05:22:31;;;;;;;5.00;3.50;;;;;;;20.45;75.58;101309.06;10584253;28;20503;-58
2021/06/19 05:27:33;;;;;;;4.60;4.25;;;;;;;20.25;75.64;101318.84;10583686;28;20402;-59
2021/06/19 05:32:35;;;;;;;7.38;4.38;;;;;;;20.53;74.54;101311.88;10583736;28;20486;-59
2021/06/19 05:37:38;;;;;;;6.38;4.70;;;;;;;20.35;74.20;101319.72;10583449;28;20050;-59
2021/06/19 05:42:40;;;;;;;5.88;5.38;;;;;;;20.34;73.60;101329.50;10582983;28;20058;-59
2021/06/19 05:47:43;;;;;;;6.07;5.45;;;;;;;20.79;73.62;101330.78;10583450;28;20063;-59
2021/06/19 05:52:45;;;;;;;6.63;5.78;;;;;;;20.78;73.85;101337.91;10583011;28;20047;-59
2021/06/19 05:57:49;;;;;;;7.05;6.43;;;;;;;20.67;73.48;101334.56;10582625;28;20043;-59
2021/06/19 06:02:52;;;;;;;6.65;6.05;;;;;;;20.86;72.85;101339.03;10583098;28;20047;-59
2021/06/19 06:07:55;;;;;;;6.07;5.57;;;;;;;20.90;71.99;101338.59;10580869;28;20040;-59
2021/06/19 06:12:58;;;;;;;7.70;7.07;;;;;;;20.75;73.27;101348.00;10582761;28;20043;-59
2021/06/19 06:18:00;;;;;;;8.85;8.15;;;;;;;20.53;72.61;101341.97;10581911;28;20043;-58
2021/06/19 06:23:03;;;;;;;7.18;6.57;;;;;;;20.66;70.73;101346.19;10582014;28;20526;-59
2021/06/19 06:28:05;;;;;;;7.80;7.15;;;;;;;20.64;70.20;101346.31;10581555;28;20054;-59
2021/06/19 06:33:08;;;;;;;8.45;7.60;;;;;;;20.55;72.29;101344.50;10582032;28;20052;-59
2021/06/19 06:38:10;;;;;;;7.80;6.65;;;;;;;20.89;70.48;101349.41;10581862;28;20051;-59
2021/06/19 06:43:12;;;;;;;6.93;6.32;;;;;;;20.82;69.46;101356.28;10580173;28;20051;-59
2021/06/19 06:48:15;;;;;;;6.97;6.47;;;;;;;20.69;69.62;101360.03;10580184;28;20047;-58
2021/06/19 06:53:18;;;;;;;6.07;5.53;;;;;;;21.03;70.44;101374.72;10581202;28;20082;-59
2021/06/19 06:58:20;;;;;;;7.07;5.28;;;;;;;21.24;69.68;101372.72;10580984;28;20044;-58
2021/06/19 07:03:23;;;;;;;5.90;5.32;;;;;;;21.15;67.60;101374.44;10581276;28;20056;-59
2021/06/19 07:08:25;;;;;;;6.90;5.55;;;;;;;21.40;66.70;101376.59;10581009;28;20069;-59
2021/06/19 07:13:28;;;;;;;5.82;5.40;;;;;;;21.65;65.86;101368.00;10588776;28;20073;-58
2021/06/19 07:18:30;;;;;;;6.68;6.18;;;;;;;21.31;65.44;101378.31;10589207;28;20050;-58
2021/06/19 07:23:33;;;;;;;7.40;6.22;;;;;;;21.46;65.16;101376.88;10588814;28;20512;-58
2021/06/19 07:28:35;;;;;;;6.50;5.90;;;;;;;21.60;65.60;101382.75;10588665;28;20044;-58
2021/06/19 07:33:38;;;;;;;7.25;6.50;;;;;;;21.40;66.18;101389.91;10588774;28;20048;-59
2021/06/19 07:38:40;;;;;;;8.13;7.43;;;;;;;21.45;65.85;101399.19;10587987;28;20479;-59
2021/06/19 07:43:43;;;;;;;8.13;7.32;;;;;;;22.23;63.15;101398.00;10587237;28;20529;-59
2021/06/19 07:48:45;;;;;;;8.10;7.30;;;;;;;22.24;63.08;101405.88;10587833;28;20051;-59
2021/06/19 07:53:48;;;;;;;6.85;6.22;;;;;;;22.76;64.54;101396.38;10587577;28;20043;-59
2021/06/19 07:58:50;;;;;;;9.60;8.65;;;;;;;22.60;64.40;101395.25;10587406;28;20044;-59
2021/06/19 08:03:53;;;;;;;13.05;11.73;;;;;;;22.10;65.05;101394.88;10587380;28;20051;-59
2021/06/19 08:08:55;;;;;;;11.20;10.15;;;;;;;22.73;64.32;101392.22;10586677;28;20047;-59
2021/06/19 08:13:57;;;;;;;12.77;11.48;;;;;;;22.74;66.47;101393.03;10586953;28;20044;-59
2021/06/19 08:19:00;;;;;;;10.20;9.32;;;;;;;23.06;61.54;101399.63;10586676;28;20051;-59
2021/06/19 08:24:02;;;;;;;10.23;8.93;;;;;;;23.71;59.91;101402.75;10585077;28;20058;-59
2021/06/19 08:29:06;;;;;;;7.60;7.00;;;;;;;24.40;58.19;101397.31;10585914;28;20127;-59
2021/06/19 08:34:09;;;;;;;7.53;6.90;;;;;;;23.33;59.38;101412.91;10585933;28;20044;-59
2021/06/19 08:39:11;;;;;;;7.25;6.72;;;;;;;23.12;61.42;101405.22;10585700;28;20058;-59
2021/06/19 08:44:23;;;;;;;9.60;8.35;;;;;;;22.90;61.50;101409.19;10585184;28;20066;-59
2021/06/19 08:49:39;;;;;;;10.32;9.52;;;;;;;24.29;60.04;101394.94;10584930;28;20116;-59
2021/06/19 08:54:41;;;;;;;10.75;9.85;;;;;;;23.46;60.35;101400.94;10585647;28;20039;-59
2021/06/19 08:59:49;;;;;;;7.82;7.22;;;;;;;24.09;56.99;101397.94;10585128;28;20044;-59
2021/06/19 09:05:04;;;;;;;9.40;8.70;;;;;;;24.40;57.12;101397.31;10585016;28;20050;-59
2021/06/19 09:10:42;;;;;;;7.53;6.82;;;;;;;23.41;59.84;101398.75;10585099;28;20051;-59
2021/06/19 09:15:51;;;;;;;8.45;7.82;;;;;;;23.83;56.52;101403.31;10580895;28;20402;-58
2021/06/19 09:21:01;;;;;;;6.88;6.28;;;;;;;25.09;55.50;101390.88;10583308;28;20521;-59
2021/06/19 09:26:05;;;;;;;7.82;7.15;;;;;;;23.99;56.60;101402.56;10583975;28;20050;-59
2021/06/19 09:31:08;;;;;;;10.32;9.57;;;;;;;23.82;56.11;101401.66;10584114;28;20044;-59
2021/06/19 09:36:11;;;;;;;12.00;11.10;;;;;;;23.34;58.36;101401.19;10583192;28;20384;-59
2021/06/19 09:41:14;;;;;;;9.57;8.88;;;;;;;24.70;56.13;101400.41;10583876;28;20051;-59
2021/06/19 09:46:18;;;;;;;10.35;9.55;;;;;;;23.81;56.25;101405.28;10581919;28;20044;-59
2021/06/19 09:51:22;;;;;;;9.23;8.52;;;;;;;24.53;56.26;101407.56;10583667;28;20122;-59
2021/06/19 09:56:27;;;;;;;9.80;9.07;;;;;;;24.25;57.82;101394.44;10582525;28;20073;-60
2021/06/19 10:01:37;;;;;;;10.95;10.05;;;;;;;24.20;55.98;101403.97;10583132;28;20513;-59
2021/06/19 10:06:39;;;;;;;12.35;11.05;;;;;;;26.45;49.84;101393.38;10581209;28;20047;-59
2021/06/19 10:11:43;;;;;;;11.60;10.60;;;;;;;24.30;56.64;101391.28;10581843;28;20044;-59
2021/06/19 10:16:48;;;;;;;9.70;8.85;;;;;;;25.87;52.89;101387.50;10580743;28;20054;-59
2021/06/19 10:21:56;;;;;;;10.02;9.32;;;;;;;25.27;55.50;101401.41;10581783;28;20497;-59
2021/06/19 10:26:58;;;;;;;9.43;8.75;;;;;;;25.06;53.94;101407.25;10581771;28;20050;-59
2021/06/19 10:32:01;;;;;;;9.23;8.52;;;;;;;25.09;55.11;101391.69;10582091;28;20051;-60
2021/06/19 10:37:08;;;;;;;10.55;9.68;;;;;;;24.53;55.76;101396.00;10580373;28;20048;-60
2021/06/19 10:42:22;;;;;;;10.18;9.38;;;;;;;25.94;52.78;101384.91;10582432;28;20054;-59
2021/06/19 10:47:53;;;;;;;10.60;9.80;;;;;;;24.94;54.11;101380.81;10580349;28;20039;-60
2021/06/19 10:53:06;;;;;;;8.95;8.35;;;;;;;27.18;49.91;101388.41;10581212;28;20499;-60
2021/06/19 10:58:30;;;;;;;11.85;10.82;;;;;;;26.88;53.10;101380.34;10581081;28;20047;-60
2021/06/19 11:03:49;;;;;;;11.50;10.60;;;;;;;26.64;52.05;101370.59;10580780;28;20058;-60
2021/06/19 11:08:58;;;;;;;9.40;8.70;;;;;;;28.83;45.79;101368.28;10581380;28;20502;-61
2021/06/19 11:14:01;;;;;;;9.02;8.32;;;;;;;26.61;49.70;101359.38;10580676;28;20498;-61
2021/06/19 11:19:03;;;;;;;10.10;9.23;;;;;;;27.74;50.53;101352.19;10580535;28;20126;-60
2021/06/19 11:24:06;;;;;;;8.90;8.10;;;;;;;28.35;46.82;101354.56;10580305;28;20407;-61
2021/06/19 11:29:36;;;;;;;9.13;8.38;;;;;;;28.85;46.96;101355.44;10580125;28;20483;-60
2021/06/19 11:34:42;;;;;;;10.13;9.30;;;;;;;27.97;45.10;101344.88;10580326;28;20398;-60
2021/06/19 11:39:45;;;;;;;9.23;8.52;;;;;;;26.81;49.49;101346.31;10579215;28;20047;-61
2021/06/19 11:44:48;;;;;;;12.52;11.55;;;;;;;25.26;52.92;101343.44;10578824;28;20407;-60
2021/06/19 11:49:51;;;;;;;11.40;10.40;;;;;;;27.61;47.44;101348.31;10579783;28;20047;-61
2021/06/19 11:54:55;;;;;;;13.30;11.00;;;;;;;27.56;49.30;101339.97;10579851;28;20078;-60
2021/06/19 12:00:12;;;;;;;9.40;8.65;;;;;;;27.03;49.26;101342.75;10587675;28;20526;-60
2021/06/19 12:05:17;;;;;;;8.90;8.10;;;;;;;25.82;53.56;101352.28;10588133;28;20085;-60
2021/06/19 12:10:30;;;;;;;10.63;9.68;;;;;;;26.17;49.68;101347.44;10587262;28;20050;-60
2021/06/19 12:15:33;;;;;;;8.88;8.00;;;;;;;26.03;52.25;101356.25;10587273;28;20054;-61
2021/06/19 12:20:36;;;;;;;8.85;8.05;;;;;;;26.63;50.01;101342.09;10587018;28;20050;-61
2021/06/19 12:25:38;;;;;;;8.85;8.07;;;;;;;25.95;53.48;101357.94;10586720;28;20401;-60
2021/06/19 12:30:56;;;;;;;10.55;9.63;;;;;;;24.92;54.55;101350.69;10586380;28;20074;-60
2021/06/19 12:36:01;;;;;;;9.68;8.80;;;;;;;25.06;53.77;101353.69;10587064;28;20044;-61
2021/06/19 12:41:07;;;;;;;9.55;8.95;;;;;;;25.08;54.06;101352.50;10584808;28;20130;-60
2021/06/19 12:46:16;;;;;;;12.13;10.93;;;;;;;24.79;56.39;101369.94;10584862;28;20051;-60
2021/06/19 12:51:25;;;;;;;13.27;11.88;;;;;;;25.27;52.94;101380.81;10585671;28;20422;-60
2021/06/19 12:56:28;;;;;;;14.18;12.63;;;;;;;25.04;54.09;101380.66;10585465;28;20368;-59
2021/06/19 13:01:31;;;;;;;17.42;14.98;;;;;;;25.64;52.23;101381.19;10585564;28;20050;-60
2021/06/19 13:06:36;;;;;;;14.40;13.00;;;;;;;27.18;49.38;101377.69;10583937;28;20557;-60
2021/06/19 13:11:43;;;;;;;18.02;16.15;;;;;;;25.79;50.58;101371.44;10584393;28;20463;-61
2021/06/19 13:16:45;;;;;;;13.48;12.35;;;;;;;28.12;47.30;101355.56;10584754;28;20484;-60
2021/06/19 13:21:56;;;;;;;9.40;8.70;;;;;;;27.68;48.77;101361.03;10584074;28;20057;-61
2021/06/19 13:27:12;;;;;;;10.40;9.50;;;;;;;27.29;46.53;101352.25;10583986;28;20126;-60
2021/06/19 13:32:15;;;;;;;11.07;10.15;;;;;;;26.53;49.91;101346.88;10583443;27;20048;-61
2021/06/19 13:37:17;;;;;;;10.02;9.13;;;;;;;26.23;50.05;101344.06;10583324;28;20044;-60
2021/06/19 13:42:19;;;;;;;13.70;12.50;;;;;;;26.13;49.77;101336.22;10583539;28;20052;-62
2021/06/19 13:47:22;;;;;;;8.90;8.20;;;;;;;27.50;48.75;101339.91;10581774;28;20048;-61
2021/06/19 13:52:24;;;;;;;11.57;10.57;;;;;;;27.43;48.17;101319.13;10582890;28;20048;-60
2021/06/19 13:57:26;;;;;;;8.32;7.63;;;;;;;28.14;48.06;101317.69;10582561;28;20047;-62
2021/06/19 14:02:29;;;;;;;10.70;9.82;;;;;;;26.80;48.21;101309.75;10582860;28;20054;-60
2021/06/19 14:07:31;;;;;;;12.70;11.40;;;;;;;26.76;49.31;101311.09;10583099;28;20066;-61
2021/06/19 14:12:33;;;;;;;15.18;13.77;;;;;;;26.71;50.60;101326.94;10582029;28;20052;-60
2021/06/19 14:17:36;;;;;;;22.58;20.70;;;;;;;26.43;49.97;101319.44;10582110;28;20048;-61
2021/06/19 14:22:39;;;;;;;21.85;19.98;;;;;;;25.82;52.46;101304.00;10581988;28;20056;-61
2021/06/19 14:27:41;;;;;;;16.23;14.90;;;;;;;27.18;50.63;101301.59;10581625;28;20052;-60
2021/06/19 14:32:43;;;;;;;19.10;17.48;;;;;;;25.92;52.42;101309.16;10581864;28;20054;-61
2021/06/19 14:37:48;;;;;;;20.67;18.77;;;;;;;25.96;50.42;101313.22;10581347;28;20054;-60
2021/06/19 14:42:50;;;;;;;19.35;17.38;;;;;;;25.41;54.29;101317.63;10581266;28;20059;-62
2021/06/19 14:47:52;;;;;;;18.73;16.90;;;;;;;26.31;51.23;101311.78;10581613;28;20479;-60
2021/06/19 14:52:55;;;;;;;20.23;18.42;;;;;;;25.87;52.01;101308.84;10581731;28;20375;-60
2021/06/19 14:57:57;;;;;;;20.35;18.65;;;;;;;26.96;49.19;101303.34;10581373;28;20047;-61
2021/06/19 15:03:00;;;;;;;18.63;17.05;;;;;;;28.28;44.86;101313.28;10581038;28;20047;-61
2021/06/19 15:08:02;;;;;;;21.05;19.17;;;;;;;26.66;49.53;101295.25;10580931;28;20043;-59
2021/06/19 15:13:05;;;;;;;19.27;17.10;;;;;;;28.63;45.60;101295.41;10580615;28;20043;-61
2021/06/19 15:18:07;;;;;;;20.35;18.55;;;;;;;27.90;48.17;101298.16;10580692;28;20480;-61
2021/06/19 15:23:10;;;;;;;22.83;20.65;;;;;;;26.44;50.06;101294.22;10581046;28;20059;-60
2021/06/19 15:28:13;;;;;;;19.63;17.77;;;;;;;27.14;49.67;101281.50;10580403;28;20063;-61
2021/06/19 15:33:16;;;;;;;19.77;17.92;;;;;;;25.92;52.87;101272.47;10586002;28;20048;-59
2021/06/19 15:38:18;;;;;;;20.92;19.13;;;;;;;25.54;53.30;101261.59;10588662;28;20059;-59
2021/06/19 15:43:20;;;;;;;20.27;18.35;;;;;;;26.31;51.93;101254.59;10588967;28;20055;-60
2021/06/19 15:48:27;;;;;;;19.58;17.70;;;;;;;26.69;50.71;101242.00;10587921;28;20498;-59
2021/06/19 15:53:29;;;;;;;20.98;19.08;;;;;;;26.45;51.98;101244.91;10587919;28;20582;-60
2021/06/19 15:58:32;;;;;;;21.67;19.42;;;;;;;25.31;52.61;101250.81;10587378;28;20051;-60
2021/06/19 16:03:34;;;;;;;20.58;18.60;;;;;;;24.51;55.92;101245.44;10587554;27;20052;-61
2021/06/19 16:08:37;;;;;;;19.67;17.67;;;;;;;25.63;53.27;101235.59;10585862;28;20052;-61
2021/06/19 16:13:39;;;;;;;22.67;20.33;;;;;;;25.02;53.44;101227.31;10586794;28;20051;-60
2021/06/19 16:18:41;;;;;;;22.60;20.30;;;;;;;25.17;51.70;101233.59;10586839;28;20135;-61
2021/06/19 16:23:44;;;;;;;18.25;16.38;;;;;;;26.08;51.73;101225.91;10587445;28;20062;-61
2021/06/19 16:28:46;;;;;;;19.90;18.02;;;;;;;25.33;53.71;101226.53;10586212;28;20056;-61
2021/06/19 16:33:49;;;;;;;19.05;17.27;;;;;;;25.31;52.59;101217.84;10568210;28;20040;-60
2021/06/19 16:38:51;;;;;;;20.02;18.02;;;;;;;24.62;55.25;101194.28;10585954;28;20051;-61
2021/06/19 16:43:54;;;;;;;17.27;15.48;;;;;;;24.70;55.97;101198.78;10584688;28;20419;-59
2021/06/19 16:48:58;;;;;;;18.52;16.65;;;;;;;24.37;55.98;101178.22;10585443;28;20047;-60
2021/06/19 16:54:00;;;;;;;17.40;15.43;;;;;;;24.28;56.84;101168.56;10585371;28;20048;-59
2021/06/19 16:59:02;;;;;;;17.83;16.23;;;;;;;23.96;57.49;101150.69;10583972;28;20047;-60
2021/06/19 17:04:05;;;;;;;17.00;15.27;;;;;;;24.05;57.56;101138.97;10583507;28;20119;-60
2021/06/19 17:09:07;;;;;;;19.52;17.50;;;;;;;23.73;57.73;101144.13;10584557;28;20055;-60
2021/06/19 17:14:10;;;;;;;16.10;14.57;;;;;;;24.21;56.83;101133.63;10584180;28;20399;-60
2021/06/19 17:19:12;;;;;;;17.48;15.77;;;;;;;23.72;59.22;101130.91;10584674;28;20122;-60
2021/06/19 17:24:14;;;;;;;19.23;17.10;;;;;;;23.78;57.87;101124.91;10582847;28;20051;-60
2021/06/19 17:29:17;;;;;;;16.98;15.35;;;;;;;23.98;58.60;101119.25;10583878;28;20040;-59
2021/06/19 17:34:19;;;;;;;18.10;16.35;;;;;;;23.21;60.77;101120.31;10583885;28;20050;-59
2021/06/19 17:39:21;;;;;;;19.15;17.23;;;;;;;23.44;60.34;101120.53;10582857;28;20043;-61
2021/06/19 17:44:24;;;;;;;18.58;16.80;;;;;;;23.22;60.39;101111.31;10582963;28;20055;-59
2021/06/19 17:49:26;;;;;;;17.80;16.05;;;;;;;23.26;60.44;101090.47;10583430;28;20048;-60
2021/06/19 17:54:29;;;;;;;23.00;20.10;;;;;;;23.08;61.93;101085.25;10582912;28;20127;-61
2021/06/19 17:59:31;;;;;;;20.75;18.73;;;;;;;22.62;64.28;101082.88;10582512;28;20158;-60
2021/06/19 18:04:34;;;;;;;19.83;17.52;;;;;;;22.62;63.17;101066.88;10582234;28;20051;-60
2021/06/19 18:09:36;;;;;;;18.73;16.77;;;;;;;22.64;62.91;101078.22;10581383;28;20093;-59
2021/06/19 18:14:39;;;;;;;17.83;15.75;;;;;;;22.77;62.39;101075.09;10580472;28;20398;-61
2021/06/19 18:19:41;;;;;;;16.38;14.27;;;;;;;22.63;63.62;101079.22;10582240;28;20055;-60
2021/06/19 18:24:43;;;;;;;20.45;15.52;;;;;;;22.73;62.98;101066.59;10581449;28;20051;-61
2021/06/19 18:29:46;;;;;;;16.52;15.00;;;;;;;22.49;63.94;101050.47;10582806;28;20122;-59
2021/06/19 18:34:49;;;;;;;17.63;15.82;;;;;;;22.32;64.14;101054.91;10581953;28;20049;-61
2021/06/19 18:39:51;;;;;;;19.55;17.08;;;;;;;22.33;63.46;101062.75;10581280;28;20043;-60
2021/06/19 18:44:53;;;;;;;20.67;18.67;;;;;;;21.92;64.16;101073.09;10581185;28;20055;-60
2021/06/19 18:49:56;;;;;;;25.15;21.30;;;;;;;21.51;66.50;101064.78;10580971;28;20047;-60
2021/06/19 18:54:58;;;;;;;24.70;20.27;;;;;;;22.06;63.71;101056.56;10580475;28;20109;-59
2021/06/19 19:00:00;;;;;;;23.23;18.80;;;;;;;21.99;63.96;101057.31;10579368;28;20059;-60
2021/06/19 19:05:08;;;;;;;22.50;18.95;;;;;;;21.65;65.68;101055.41;10581029;28;20384;-60
2021/06/19 19:10:10;;;;;;;20.75;18.20;;;;;;;21.64;65.18;101056.41;10588886;28;20128;-61
2021/06/19 19:15:13;;;;;;;19.10;17.10;;;;;;;21.54;65.98;101067.16;10587665;28;20046;-61
2021/06/19 19:20:16;;;;;;;19.65;17.55;;;;;;;21.50;66.62;101055.13;10588024;28;20071;-59
2021/06/19 19:25:19;;;;;;;22.05;19.80;;;;;;;21.32;67.54;101041.81;10587155;28;20187;-60
2021/06/19 19:30:23;;;;;;;21.50;18.50;;;;;;;21.15;68.45;101044.31;10588598;28;20071;-60
2021/06/19 19:35:25;;;;;;;22.02;18.40;;;;;;;21.15;68.35;101022.19;10588018;28;20048;-60
2021/06/19 19:40:28;;;;;;;22.38;20.02;;;;;;;20.68;68.92;100998.38;10588154;28;20043;-60
2021/06/19 19:45:31;;;;;;;21.90;19.48;;;;;;;20.95;68.76;100994.84;10588873;28;20047;-60
2021/06/19 19:50:33;;;;;;;24.50;21.95;;;;;;;20.38;69.84;100976.41;10588820;28;20044;-59
2021/06/19 19:55:36;;;;;;;21.95;19.65;;;;;;;20.40;69.06;100961.97;10588140;28;20044;-59
2021/06/19 20:00:38;;;;;;;24.73;22.00;;;;;;;20.41;68.82;100960.16;10588010;28;20043;-59
2021/06/19 20:05:41;;;;;;;24.92;22.40;;;;;;;20.07;71.06;100971.34;10586029;28;20043;-61
2021/06/19 20:10:44;;;;;;;23.20;20.85;;;;;;;20.00;71.31;100986.22;10586177;28;20047;-60
2021/06/19 20:15:47;;;;;;;26.77;23.85;;;;;;;19.81;72.30;100995.06;10586820;28;20063;-60
2021/06/19 20:20:50;;;;;;;23.27;20.77;;;;;;;19.95;72.67;100997.25;10587143;28;20050;-60
2021/06/19 20:25:52;;;;;;;23.58;21.02;;;;;;;19.92;71.44;100963.03;10586595;28;20131;-59
2021/06/19 20:30:55;;;;;;;26.83;20.85;;;;;;;19.60;72.60;100950.94;10586297;28;20048;-59
2021/06/19 20:35:59;;;;;;;21.27;18.85;;;;;;;20.11;71.89;100918.75;10585737;28;20487;-59
2021/06/19 20:41:01;;;;;;;24.13;20.92;;;;;;;19.91;71.99;100926.81;10586018;28;20062;-62
2021/06/19 20:46:04;;;;;;;26.17;22.48;;;;;;;19.55;72.83;100931.06;10585478;28;20517;-61
2021/06/19 20:51:08;;;;;;;28.55;23.00;;;;;;;19.67;72.46;100940.56;10584957;28;20043;-59
2021/06/19 20:56:11;;;;;;;23.65;21.23;;;;;;;19.71;72.92;100962.34;10584503;28;20452;-60
2021/06/19 21:01:14;;;;;;;21.75;19.52;;;;;;;20.11;71.07;100924.91;10583691;28;20047;-59
2021/06/19 21:06:17;;;;;;;22.10;19.90;;;;;;;19.75;72.86;100927.41;10584811;28;20044;-60
2021/06/19 21:11:20;;;;;;;23.90;20.50;;;;;;;19.67;72.66;100912.19;10584613;28;20055;-60
2021/06/19 21:16:22;;;;;;;22.05;19.63;;;;;;;19.84;72.63;100877.91;10584262;28;20039;-59
2021/06/19 21:21:24;;;;;;;23.60;20.45;;;;;;;19.64;72.74;100872.63;10584079;28;20402;-61
2021/06/19 21:26:27;;;;;;;25.80;23.23;;;;;;;19.47;72.95;100863.59;10583644;28;20059;-59
2021/06/19 21:31:29;;;;;;;23.95;21.58;;;;;;;19.43;73.29;100841.00;10582994;28;20055;-61
2021/06/19 21:36:33;;;;;;;22.90;20.75;;;;;;;19.27;74.87;100804.41;10583728;28;20043;-60
2021/06/19 21:41:36;;;;;;;25.77;23.35;;;;;;;19.30;73.48;100811.28;10584059;28;20055;-59
2021/06/19 21:46:38;;;;;;;23.85;21.38;;;;;;;19.63;72.98;100799.22;10583908;28;20048;-59
2021/06/19 21:51:41;;;;;;;23.95;21.58;;;;;;;19.54;73.01;100783.38;10582766;28;20571;-60
2021/06/19 21:56:43;;;;;;;23.63;21.42;;;;;;;19.51;74.35;100792.44;10582684;28;20044;-60
2021/06/19 22:01:46;;;;;;;28.65;25.70;;;;;;;19.10;76.35;100776.00;10582462;28;20410;-60
2021/06/19 22:06:48;;;;;;;30.08;26.80;;;;;;;18.90;76.28;100778.69;10581687;28;20052;-59
2021/06/19 22:11:50;;;;;;;28.77;25.77;;;;;;;19.14;75.09;100752.66;10582366;28;20050;-60
2021/06/19 22:16:53;;;;;;;31.88;28.55;;;;;;;18.94;78.71;100763.31;10582427;28;20047;-59
2021/06/19 22:21:56;;;;;;;32.53;29.40;;;;;;;19.08;79.56;100769.97;10582031;28;20051;-59
2021/06/19 22:26:58;;;;;;;32.03;28.88;;;;;;;19.02;80.00;100783.81;10581185;28;20379;-59
2021/06/19 22:32:00;;;;;;;31.63;28.23;;;;;;;18.96;80.46;100779.09;10581353;28;20051;-59
2021/06/19 22:37:03;;;;;;;30.83;27.73;;;;;;;18.88;79.16;100809.81;10581344;28;20121;-60
2021/06/19 22:42:06;;;;;;;34.03;30.27;;;;;;;18.80;81.87;100846.78;10578726;28;20482;-59
2021/06/19 22:47:09;;;;;;;36.03;30.80;;;;;;;18.68;80.61;100869.13;10563231;28;20043;-59
2021/06/19 22:52:11;;;;;;;35.40;31.83;;;;;;;18.55;82.38;100893.25;10580860;28;20479;-59
2021/06/19 22:57:15;;;;;;;43.40;36.40;;;;;;;18.32;84.23;100888.16;10580681;28;20052;-59
2021/06/19 23:02:17;;;;;;;46.95;36.40;;;;;;;18.20;84.02;100910.47;10580780;28;20043;-59